Time;durP1;ratioP1;P1;durP2;ratioP2;P2;SDS_P1;SDS_P2;PMS_P1;PMS_P2;Temp;Humidity;BMP_temperature;BMP_pressure;BME280_temperature;BME280_humidity;BME280_pressure;Samples;Min_cycle;Max_cycle;Signal;HPM_P1;HPM_P2
2024/02/15 00:01:57;;;;;;;74.78;26.08;;;;;;;3.04;100.00;101453.53;5136749;27;20401;-66
2024/02/15 00:04:22;;;;;;;77.32;27.00;;;;;;;2.97;100.00;101434.63;5136364;27;20038;-66
2024/02/15 00:06:48;;;;;;;76.80;25.70;;;;;;;3.05;100.00;101452.59;5137275;27;20031;-66
2024/02/15 00:09:13;;;;;;;70.38;25.00;;;;;;;3.08;100.00;101459.44;5136149;27;20469;-66
2024/02/15 00:11:39;;;;;;;73.10;25.08;;;;;;;3.03;100.00;101458.03;5136436;27;20350;-66
2024/02/15 00:14:04;;;;;;;74.93;25.75;;;;;;;3.05;100.00;101460.56;5117361;27;20084;-66
2024/02/15 00:16:30;;;;;;;75.43;25.35;;;;;;;3.03;100.00;101462.50;5135560;27;20034;-66
2024/02/15 00:18:55;;;;;;;66.07;23.85;;;;;;;2.99;100.00;101461.94;5134570;27;20546;-66
2024/02/15 00:21:22;;;;;;;80.80;24.38;;;;;;;2.95;100.00;101473.81;5133086;27;20523;-66
2024/02/15 00:23:48;;;;;;;72.18;24.40;;;;;;;2.96;100.00;101456.03;5132109;27;20031;-66
2024/02/15 00:26:13;;;;;;;83.25;25.63;;;;;;;2.95;100.00;101463.19;5131824;27;20038;-66
2024/02/15 00:28:41;;;;;;;83.97;25.15;;;;;;;2.68;100.00;101413.28;5132735;27;20089;-66
2024/02/15 00:31:08;;;;;;;80.03;24.55;;;;;;;2.93;100.00;101458.97;5132061;27;20413;-66
2024/02/15 00:33:33;;;;;;;82.15;26.30;;;;;;;2.91;100.00;101461.75;5131665;27;20200;-65
2024/02/15 00:35:58;;;;;;;74.22;24.48;;;;;;;2.93;100.00;101458.97;5132743;27;20023;-66
2024/02/15 00:38:24;;;;;;;81.57;24.90;;;;;;;2.91;100.00;101460.91;5148905;27;20115;-66
2024/02/15 00:40:49;;;;;;;82.60;26.70;;;;;;;2.94;100.00;101465.97;5132771;27;20477;-66
2024/02/15 00:43:15;;;;;;;81.25;25.42;;;;;;;2.96;100.00;101461.38;5131468;27;20553;-66
2024/02/15 00:45:40;;;;;;;90.93;26.05;;;;;;;2.96;100.00;101461.38;5131407;27;20459;-66
2024/02/15 00:48:06;;;;;;;98.40;27.20;;;;;;;2.95;100.00;101465.00;5132959;27;20038;-66
2024/02/15 00:50:32;;;;;;;84.88;25.85;;;;;;;2.83;100.00;101446.47;5132935;27;20067;-66
2024/02/15 00:52:57;;;;;;;85.50;27.25;;;;;;;2.95;100.00;101463.19;5132644;27;20160;-66
2024/02/15 00:55:23;;;;;;;91.63;27.40;;;;;;;2.95;100.00;101462.34;5131591;27;20065;-66
2024/02/15 00:57:48;;;;;;;85.10;26.05;;;;;;;2.97;100.00;101463.03;5132802;27;20168;-66
2024/02/15 01:00:14;;;;;;;89.18;26.45;;;;;;;2.98;100.00;101470.03;5131672;27;20034;-65
2024/02/15 01:02:40;;;;;;;86.07;25.23;;;;;;;2.96;100.00;101474.66;5133740;27;20046;-66
2024/02/15 01:05:07;;;;;;;90.93;25.63;;;;;;;2.93;100.00;101469.59;5135726;27;20030;-66
2024/02/15 01:07:33;;;;;;;76.00;24.67;;;;;;;2.93;100.00;101469.59;5135011;27;20497;-66
2024/02/15 01:09:59;;;;;;;72.75;23.77;;;;;;;2.76;100.00;101447.16;5135310;27;20023;-66
2024/02/15 01:12:25;;;;;;;86.70;26.40;;;;;;;2.94;100.00;101476.59;5134354;27;20038;-67
2024/02/15 01:14:50;;;;;;;79.80;25.27;;;;;;;2.94;100.00;101473.94;5132821;27;20027;-66
2024/02/15 01:17:17;;;;;;;77.15;24.10;;;;;;;2.91;100.00;101482.19;5149333;27;20382;-69
2024/02/15 01:19:42;;;;;;;72.75;24.55;;;;;;;2.93;100.00;101473.09;5149197;27;20027;-67
2024/02/15 01:22:07;;;;;;;76.97;24.88;;;;;;;2.93;100.00;101461.63;5145981;27;20027;-76
2024/02/15 01:24:33;;;;;;;68.50;24.42;;;;;;;2.90;100.00;101469.88;5138727;27;20152;-66
2024/02/15 01:26:58;;;;;;;78.03;26.05;;;;;;;2.91;100.00;101466.22;5131939;27;20486;-66
2024/02/15 01:29:25;;;;;;;69.40;23.70;;;;;;;2.92;100.00;101459.97;5130521;27;20023;-66
2024/02/15 01:31:52;;;;;;;66.97;23.45;;;;;;;2.93;100.00;101469.59;5132195;27;20393;-66
2024/02/15 01:34:17;;;;;;;64.30;23.80;;;;;;;2.70;100.00;101426.41;5147983;27;20042;-66
2024/02/15 01:36:43;;;;;;;63.70;23.45;;;;;;;2.94;100.00;101463.31;5132028;27;20015;-66
2024/02/15 01:39:08;;;;;;;68.72;24.48;;;;;;;2.78;100.00;101438.06;5131593;27;20054;-66
2024/02/15 01:41:33;;;;;;;59.72;22.63;;;;;;;2.95;100.00;101470.31;5131819;27;20060;-66
2024/02/15 01:43:59;;;;;;;58.95;22.88;;;;;;;2.95;100.00;101471.16;5133905;27;20083;-66
2024/02/15 01:46:25;;;;;;;59.55;23.08;;;;;;;2.93;100.00;101469.59;5136355;27;20027;-66
2024/02/15 01:48:51;;;;;;;52.03;22.30;;;;;;;2.94;100.00;101476.59;5135828;27;20031;-66
2024/02/15 01:51:17;;;;;;;55.22;22.83;;;;;;;2.93;100.00;101475.75;5136561;27;20087;-66
2024/02/15 01:53:43;;;;;;;58.28;22.50;;;;;;;2.56;100.00;101422.28;5136597;27;20023;-66
2024/02/15 01:56:11;;;;;;;55.50;21.98;;;;;;;2.82;100.00;101457.25;5152368;27;20033;-66
2024/02/15 01:58:40;;;;;;;57.42;21.60;;;;;;;2.86;100.00;101473.78;5136289;27;20031;-66
2024/02/15 02:01:06;;;;;;;51.10;20.20;;;;;;;2.82;100.00;101459.91;5136256;27;20473;-65
2024/02/15 02:03:32;;;;;;;52.30;21.17;;;;;;;2.82;100.00;101457.25;5137664;27;20068;-67
2024/02/15 02:05:58;;;;;;;56.92;21.50;;;;;;;2.85;100.00;101450.81;5134612;27;20113;-66
2024/02/15 02:08:23;;;;;;;59.08;22.15;;;;;;;2.85;100.00;101457.00;5152134;27;20474;-66
2024/02/15 02:10:50;;;;;;;53.08;21.83;;;;;;;2.86;100.00;101441.88;5135935;27;20428;-66
2024/02/15 02:13:15;;;;;;;53.90;21.38;;;;;;;2.84;100.00;101439.34;5135998;27;20025;-67
2024/02/15 02:15:41;;;;;;;58.63;21.95;;;;;;;2.85;100.00;101442.81;5136027;27;20023;-66
2024/02/15 02:18:08;;;;;;;50.42;20.33;;;;;;;2.81;100.00;101440.47;5136087;27;20486;-66
2024/02/15 02:20:34;;;;;;;50.65;21.13;;;;;;;2.81;100.00;101445.78;5117843;27;20038;-66
2024/02/15 02:23:18;;;;;;;53.42;21.77;;;;;;;2.82;100.00;101447.47;5135407;27;20031;-66
2024/02/15 02:25:49;;;;;;;53.53;20.85;;;;;;;2.81;100.00;101445.78;5151649;27;20039;-66
2024/02/15 02:28:15;;;;;;;48.33;20.45;;;;;;;2.82;100.00;101443.97;5151635;27;20026;-66
2024/02/15 02:30:41;;;;;;;46.70;21.10;;;;;;;2.80;100.00;101445.91;5135692;27;20027;-66
2024/02/15 02:33:11;;;;;;;48.58;20.05;;;;;;;2.72;100.00;101419.16;5135421;27;20107;-66
2024/02/15 02:35:36;;;;;;;54.08;21.42;;;;;;;2.64;100.00;101397.72;5134732;27;20118;-66
2024/02/15 02:38:03;;;;;;;55.22;21.02;;;;;;;2.75;100.00;101424.22;5134745;27;20566;-66
2024/02/15 02:40:29;;;;;;;51.22;20.92;;;;;;;2.70;100.00;101413.13;5133869;27;20502;-67
2024/02/15 02:42:56;;;;;;;50.58;20.95;;;;;;;2.78;100.00;101421.25;5132437;27;20182;-66
2024/02/15 02:45:22;;;;;;;50.90;20.33;;;;;;;2.77;100.00;101417.75;5134125;27;20035;-66
2024/02/15 02:47:49;;;;;;;49.58;20.85;;;;;;;2.79;100.00;101426.47;5133065;28;20027;-66
2024/02/15 02:50:16;;;;;;;57.05;21.13;;;;;;;2.75;100.00;101421.56;5134515;27;20049;-66
2024/02/15 02:52:41;;;;;;;50.83;20.50;;;;;;;2.80;100.00;101433.44;5132893;28;20043;-66
2024/02/15 02:55:08;;;;;;;46.92;19.85;;;;;;;2.78;100.00;101430.09;5134302;27;20028;-67
2024/02/15 02:57:42;;;;;;;46.30;19.63;;;;;;;2.69;100.00;101412.28;5134014;27;20063;-67
2024/02/15 03:00:12;;;;;;;37.90;17.83;;;;;;;2.72;100.00;101433.28;5129452;28;20019;-66
2024/02/15 03:02:48;;;;;;;39.03;19.30;;;;;;;2.74;100.00;101426.00;5150008;27;20477;-66
2024/02/15 03:05:14;;;;;;;39.42;17.65;;;;;;;2.69;100.00;101427.41;5133010;27;20035;-66
2024/02/15 03:07:44;;;;;;;43.58;18.05;;;;;;;2.72;100.00;101427.13;5134085;27;20468;-66
2024/02/15 03:10:13;;;;;;;44.42;18.92;;;;;;;2.59;100.00;101414.06;5149517;27;20023;-66
2024/02/15 03:12:39;;;;;;;43.13;18.85;;;;;;;2.76;100.00;101439.16;5132979;27;20031;-68
2024/02/15 03:15:11;;;;;;;46.08;19.70;;;;;;;2.77;100.00;101435.53;5131812;28;20106;-66
2024/02/15 03:17:41;;;;;;;41.33;18.20;;;;;;;2.78;100.00;101440.72;5133126;27;20031;-67
2024/02/15 03:20:44;;;;;;;47.25;19.90;;;;;;;2.64;100.00;101413.66;5138415;27;20027;-68
2024/02/15 03:23:02;;;;;;;39.30;18.10;;;;;;;2.77;100.00;101427.56;5136100;27;20039;-66
2024/02/15 03:25:28;;;;;;;34.70;16.25;;;;;;;2.74;100.00;101433.97;5133880;27;20100;-66
2024/02/15 03:28:03;;;;;;;41.22;18.15;;;;;;;2.73;100.00;101442.09;5133078;27;20031;-66
2024/02/15 03:30:31;;;;;;;41.45;18.15;;;;;;;2.65;100.00;101423.28;5133480;27;20019;-66
2024/02/15 03:32:57;;;;;;;39.85;17.92;;;;;;;2.77;100.00;101444.34;5133601;27;20106;-71
2024/02/15 03:35:24;;;;;;;37.13;18.17;;;;;;;2.72;100.00;101437.75;5136194;27;20024;-65
2024/02/15 03:37:51;;;;;;;37.73;16.80;;;;;;;2.78;100.00;101450.50;5110774;27;1163695;-66
2024/02/15 03:40:19;;;;;;;40.03;18.02;;;;;;;2.72;100.00;101451.03;5134368;27;20514;-66
2024/02/15 03:42:44;;;;;;;40.33;18.48;;;;;;;2.71;100.00;101454.66;5150102;27;20501;-66
2024/02/15 03:45:10;;;;;;;43.50;18.83;;;;;;;2.65;100.00;101429.47;5134081;27;20037;-66
2024/02/15 03:47:38;;;;;;;41.42;18.05;;;;;;;2.65;100.00;101437.44;5142793;27;20485;-67
2024/02/15 03:50:09;;;;;;;39.20;17.73;;;;;;;2.65;100.00;101426.81;5145086;27;20088;-67
2024/02/15 03:52:35;;;;;;;36.55;17.17;;;;;;;2.67;100.00;101440.78;5134510;27;20118;-66
2024/02/15 03:55:02;;;;;;;39.08;17.65;;;;;;;2.53;100.00;101418.06;5133806;27;20042;-66
2024/02/15 03:57:28;;;;;;;29.67;15.35;;;;;;;2.67;100.00;101443.44;5134169;27;20019;-66
2024/02/15 03:59:54;;;;;;;32.35;16.40;;;;;;;2.66;100.00;101441.78;5133712;27;20019;-67
2024/02/15 04:02:20;;;;;;;37.28;16.95;;;;;;;2.62;100.00;101435.06;5132474;27;20027;-67
2024/02/15 04:04:47;;;;;;;27.50;14.93;;;;;;;2.60;100.00;101450.28;5150035;27;20035;-67
2024/02/15 04:07:18;;;;;;;30.30;15.38;;;;;;;2.65;100.00;101445.41;5133117;27;20394;-66
2024/02/15 04:09:45;;;;;;;36.35;16.58;;;;;;;2.66;100.00;101446.25;5132446;27;20027;-67
2024/02/15 04:12:17;;;;;;;31.27;15.93;;;;;;;2.64;100.00;101443.72;5133313;27;20027;-67
2024/02/15 04:14:47;;;;;;;29.30;15.38;;;;;;;2.65;100.00;101449.88;5134932;27;20041;-69
2024/02/15 04:17:21;;;;;;;27.77;15.40;;;;;;;2.64;100.00;101449.03;5136420;27;20082;-67
2024/02/15 04:19:47;;;;;;;31.85;15.52;;;;;;;2.65;100.00;101453.38;5133590;27;20561;-67
2024/02/15 04:22:16;;;;;;;28.60;14.85;;;;;;;2.63;100.00;101450.00;5132856;27;20031;-67
2024/02/15 04:24:41;;;;;;;28.10;15.52;;;;;;;2.48;100.00;101424.75;5133335;27;20043;-67
2024/02/15 04:27:17;;;;;;;25.35;13.95;;;;;;;2.61;100.00;101443.97;5132926;27;20081;-66
2024/02/15 04:29:44;;;;;;;26.92;14.55;;;;;;;2.59;100.00;101445.94;5131981;27;20494;-67
2024/02/15 04:32:10;;;;;;;28.15;15.02;;;;;;;2.57;100.00;101438.09;5131787;27;20088;-67
2024/02/15 04:34:36;;;;;;;25.20;14.57;;;;;;;2.55;100.00;101439.19;5132679;27;20050;-68
2024/02/15 04:37:06;;;;;;;29.50;14.88;;;;;;;2.49;100.00;101429.09;5133358;27;20057;-66
2024/02/15 04:39:32;;;;;;;27.58;15.52;;;;;;;2.59;100.00;101453.91;5133112;27;20050;-67
2024/02/15 04:41:58;;;;;;;33.38;16.17;;;;;;;2.55;100.00;101445.38;5148488;27;20095;-66
2024/02/15 04:44:27;;;;;;;31.65;16.40;;;;;;;2.55;100.00;101437.41;5132886;27;20026;-67
2024/02/15 04:46:53;;;;;;;30.63;16.77;;;;;;;2.55;100.00;101441.84;5131643;27;20520;-67
2024/02/15 04:49:20;;;;;;;30.67;15.95;;;;;;;2.52;100.00;101440.31;5148514;27;20031;-66
2024/02/15 04:51:47;;;;;;;26.77;14.98;;;;;;;2.45;100.00;101425.88;5132709;27;20560;-67
2024/02/15 04:54:13;;;;;;;27.35;15.40;;;;;;;2.61;100.00;101446.63;5131354;27;20023;-67
2024/02/15 04:56:39;;;;;;;29.98;16.02;;;;;;;2.60;100.00;101437.00;5133056;27;20023;-66
2024/02/15 04:59:08;;;;;;;35.70;16.83;;;;;;;2.58;100.00;101438.91;5133295;27;20030;-67
2024/02/15 05:01:35;;;;;;;27.70;15.80;;;;;;;2.58;100.00;101444.22;5132800;27;20489;-67
2024/02/15 05:04:04;;;;;;;26.00;15.45;;;;;;;2.56;100.00;101439.06;5132285;27;20169;-67
2024/02/15 05:06:29;;;;;;;26.30;15.77;;;;;;;2.59;100.00;101445.94;5131226;27;20126;-66
2024/02/15 05:08:56;;;;;;;27.08;16.05;;;;;;;2.61;100.00;101445.78;5132705;27;20723;-66
2024/02/15 05:11:22;;;;;;;29.10;16.10;;;;;;;2.63;100.00;101447.34;5132686;27;20087;-67
2024/02/15 05:13:51;;;;;;;26.73;15.07;;;;;;;2.57;100.00;101439.91;5132539;27;20049;-66
2024/02/15 05:16:17;;;;;;;26.33;15.70;;;;;;;2.65;100.00;101450.72;5132883;27;20057;-66
2024/02/15 05:18:43;;;;;;;23.98;15.55;;;;;;;2.65;100.00;101444.56;5132279;27;20054;-66
2024/02/15 05:21:09;;;;;;;26.67;16.65;;;;;;;2.54;100.00;101429.53;5131919;27;20034;-67
2024/02/15 05:23:39;;;;;;;27.80;15.73;;;;;;;2.60;100.00;101442.31;5131979;27;20099;-68
2024/02/15 05:26:06;;;;;;;31.35;17.40;;;;;;;2.58;100.00;101436.25;5131551;27;20023;-67
2024/02/15 05:28:32;;;;;;;30.00;16.80;;;;;;;2.51;100.00;101433.28;5131764;27;20027;-68
2024/02/15 05:31:25;;;;;;;28.20;17.30;;;;;;;2.47;100.00;101426.56;5131414;27;20031;-69
2024/02/15 05:33:53;;;;;;;28.52;16.08;;;;;;;2.48;100.00;101432.72;5147785;27;20465;-70
2024/02/15 05:36:20;;;;;;;27.45;16.25;;;;;;;2.47;100.00;101431.88;5131621;27;20038;-70
2024/02/15 05:38:53;;;;;;;25.63;15.68;;;;;;;2.50;100.00;101441.41;5132923;27;20054;-71
2024/02/15 05:41:20;;;;;;;29.02;16.95;;;;;;;2.49;100.00;101440.56;5132303;27;20063;-69
2024/02/15 05:43:48;;;;;;;30.00;16.80;;;;;;;2.49;100.00;101445.88;5132522;27;20142;-68
2024/02/15 05:46:14;;;;;;;27.58;16.50;;;;;;;2.29;100.00;101417.53;5130902;27;20042;-69
2024/02/15 05:48:41;;;;;;;30.33;17.23;;;;;;;2.49;100.00;101455.66;5147893;27;20027;-68
2024/02/15 05:51:07;;;;;;;28.92;17.52;;;;;;;2.45;100.00;101448.91;5131918;27;20299;-69
2024/02/15 05:53:36;;;;;;;28.20;16.42;;;;;;;2.46;100.00;101455.94;5132026;27;20034;-67
2024/02/15 05:56:13;;;;;;;29.08;15.23;;;;;;;2.42;100.00;101450.03;5132493;27;20075;-71
2024/02/15 05:58:39;;;;;;;29.45;16.05;;;;;;;2.48;100.00;101451.31;5131954;27;20122;-68
2024/02/15 06:01:06;;;;;;;29.08;16.33;;;;;;;2.44;100.00;101450.72;5131631;27;20087;-67
2024/02/15 06:03:33;;;;;;;29.98;16.98;;;;;;;2.39;100.00;101449.47;5120163;27;20039;-67
2024/02/15 06:06:06;;;;;;;29.60;16.60;;;;;;;2.36;100.00;101450.56;5109708;28;20024;-68
2024/02/15 06:08:33;;;;;;;26.30;15.85;;;;;;;2.38;100.00;101451.25;5109668;28;20043;-69
2024/02/15 06:10:59;;;;;;;38.28;18.73;;;;;;;2.26;100.00;101439.03;5128068;28;20035;-69
2024/02/15 06:13:26;;;;;;;28.67;17.08;;;;;;;2.37;100.00;101454.88;5111137;28;20268;-68
2024/02/15 06:15:54;;;;;;;32.97;18.48;;;;;;;2.37;100.00;101465.50;5128384;28;20058;-69
2024/02/15 06:18:24;;;;;;;31.38;17.40;;;;;;;2.32;100.00;101454.44;5112029;28;20039;-68
2024/02/15 06:20:53;;;;;;;32.53;17.95;;;;;;;2.37;100.00;101465.50;5109220;28;20439;-67
2024/02/15 06:23:19;;;;;;;34.17;18.05;;;;;;;2.34;100.00;101458.63;5109289;28;20353;-67
2024/02/15 06:25:50;;;;;;;32.17;18.65;;;;;;;2.19;100.00;101437.88;5124878;28;20039;-67
2024/02/15 06:39:38;;;;;;;33.22;18.50;;;;;;;2.29;100.00;101449.41;5109418;28;20486;-67
2024/02/15 06:42:02;;;;;;;40.78;20.05;;;;;;;2.23;100.00;101450.75;5114205;28;20116;-68
2024/02/15 06:44:29;;;;;;;36.20;20.50;;;;;;;2.24;100.00;101452.41;5114671;28;20020;-69
2024/02/15 06:46:56;;;;;;;36.58;20.77;;;;;;;2.28;100.00;101463.63;5115277;28;20019;-68
2024/02/15 06:49:24;;;;;;;39.22;20.58;;;;;;;2.28;100.00;101451.19;5115553;28;20032;-68
2024/02/15 06:51:50;;;;;;;33.42;18.95;;;;;;;2.29;100.00;101460.84;5115257;28;20027;-69
2024/02/15 06:54:18;;;;;;;34.08;20.13;;;;;;;2.33;100.00;101456.97;5131069;27;20051;-68
2024/02/15 06:56:47;;;;;;;40.42;20.80;;;;;;;1.31;100.00;101308.97;5115916;28;20026;-68
2024/02/15 06:59:18;;;;;;;37.22;20.13;;;;;;;2.27;100.00;101456.63;5115508;28;20027;-69
2024/02/15 07:01:43;;;;;;;43.45;21.23;;;;;;;2.22;100.00;101456.16;5114958;28;20402;-68
2024/02/15 07:04:12;;;;;;;39.85;21.48;;;;;;;2.31;100.00;101480.13;5113223;28;20028;-68
2024/02/15 07:06:38;;;;;;;38.88;21.00;;;;;;;2.32;100.00;101476.53;5114184;27;20027;-68
2024/02/15 07:09:04;;;;;;;37.92;20.45;;;;;;;2.37;100.00;101483.25;5113355;28;20033;-68
2024/02/15 07:11:34;;;;;;;39.50;20.88;;;;;;;2.37;100.00;101483.25;5131382;27;20123;-68
2024/02/15 07:14:00;;;;;;;43.03;21.90;;;;;;;2.38;100.00;101477.81;5130827;27;20031;-68
2024/02/15 07:16:26;;;;;;;38.92;20.63;;;;;;;2.37;100.00;101480.59;5114113;28;20035;-68
2024/02/15 07:18:51;;;;;;;42.88;21.42;;;;;;;2.38;100.00;101469.84;5115071;28;20027;-69
2024/02/15 07:21:23;;;;;;;36.53;21.33;;;;;;;2.37;100.00;101469.97;5113484;28;20019;-69
2024/02/15 07:23:48;;;;;;;37.42;20.40;;;;;;;2.43;100.00;101474.78;5097257;28;20035;-68
2024/02/15 07:26:15;;;;;;;41.13;22.65;;;;;;;2.46;100.00;101478.03;5129825;27;20034;-69
2024/02/15 07:28:40;;;;;;;37.33;20.52;;;;;;;2.40;100.00;101470.56;5129865;27;20032;-69
2024/02/15 07:31:06;;;;;;;35.88;20.40;;;;;;;2.51;100.00;101480.28;5113728;28;20083;-68
2024/02/15 07:33:32;;;;;;;39.35;19.25;;;;;;;2.29;100.00;101449.41;5114321;28;20031;-69
2024/02/15 07:35:57;;;;;;;39.63;21.38;;;;;;;2.51;100.00;101480.28;5116055;28;20035;-68
2024/02/15 07:38:23;;;;;;;39.47;20.33;;;;;;;2.51;100.00;101474.97;5118581;28;20048;-68
2024/02/15 07:40:49;;;;;;;35.60;19.95;;;;;;;2.55;100.00;101474.59;5135841;27;20031;-68
2024/02/15 07:43:15;;;;;;;36.28;20.45;;;;;;;2.39;100.00;101444.97;5115450;28;20035;-68
2024/02/15 07:45:40;;;;;;;40.03;20.48;;;;;;;2.55;100.00;101471.06;5115667;28;20035;-68
2024/02/15 07:48:08;;;;;;;37.83;19.10;;;;;;;2.63;100.00;101471.28;5113128;28;20169;-68
2024/02/15 07:50:37;;;;;;;37.67;20.35;;;;;;;2.61;100.00;101462.56;5115000;28;20129;-68
2024/02/15 07:53:03;;;;;;;33.83;18.65;;;;;;;2.64;100.00;101464.97;5113485;28;20031;-68
2024/02/15 07:55:28;;;;;;;35.70;18.58;;;;;;;2.46;100.00;101427.53;5113299;28;20457;-69
2024/02/15 07:57:55;;;;;;;33.70;17.77;;;;;;;2.71;100.00;101450.19;5114262;28;20023;-69
2024/02/15 08:00:21;;;;;;;37.25;19.20;;;;;;;2.71;100.00;101454.66;5114308;28;20032;-68
2024/02/15 08:02:47;;;;;;;33.38;18.35;;;;;;;2.78;100.00;101462.00;5113502;28;20027;-69
2024/02/15 08:05:20;;;;;;;30.75;17.30;;;;;;;2.66;100.00;101444.44;5114132;28;20486;-69
2024/02/15 08:07:49;;;;;;;38.25;19.45;;;;;;;2.86;100.00;101453.34;5115183;28;20107;-68
2024/02/15 08:10:15;;;;;;;32.35;18.60;;;;;;;2.85;100.00;101451.66;5113912;28;20031;-69
2024/02/15 08:12:45;;;;;;;32.60;18.13;;;;;;;2.86;100.00;101457.81;5130877;27;20390;-68
2024/02/15 08:15:12;;;;;;;32.75;18.20;;;;;;;2.82;100.00;101459.91;5114409;28;20027;-69
2024/02/15 08:17:48;;;;;;;34.35;18.73;;;;;;;2.84;100.00;101455.28;5113979;28;20114;-69
2024/02/15 08:20:14;;;;;;;27.02;15.60;;;;;;;2.85;100.00;101448.16;5113162;28;20039;-69
2024/02/15 08:22:41;;;;;;;31.55;17.52;;;;;;;2.86;100.00;101447.19;5113791;28;20035;-69
2024/02/15 08:25:15;;;;;;;31.02;17.75;;;;;;;2.87;100.00;101441.72;5112229;28;20031;-69
2024/02/15 08:27:44;;;;;;;31.98;18.58;;;;;;;2.92;100.00;101444.00;5113118;28;20027;-69
2024/02/15 08:30:13;;;;;;;32.72;19.00;;;;;;;2.99;100.00;101442.50;5113007;28;20314;-69
2024/02/15 08:32:43;;;;;;;31.00;18.70;;;;;;;2.98;100.00;101430.16;5128165;27;20554;-69
2024/02/15 08:35:10;;;;;;;31.02;18.27;;;;;;;2.99;100.00;101426.53;5110782;28;20098;-69
2024/02/15 08:37:37;;;;;;;31.85;18.52;;;;;;;3.08;100.00;101425.75;5112501;28;20054;-69
2024/02/15 08:40:04;;;;;;;32.60;17.88;;;;;;;3.04;100.00;101434.94;5112942;28;20039;-69
2024/02/15 08:42:30;;;;;;;28.38;17.63;;;;;;;3.09;100.00;101426.56;5112722;28;20024;-69
2024/02/15 08:44:56;;;;;;;28.58;16.85;;;;;;;3.02;100.00;101424.44;5112342;28;20032;-69
2024/02/15 08:47:22;;;;;;;28.02;15.95;;;;;;;2.96;100.00;101417.00;5093813;28;20035;-69
2024/02/15 08:49:47;;;;;;;30.98;17.10;;;;;;;3.09;100.00;101421.25;5110993;28;20038;-69
2024/02/15 08:52:13;;;;;;;29.38;16.55;;;;;;;3.12;100.00;101416.50;5110202;28;20096;-69
2024/02/15 08:54:38;;;;;;;25.85;15.73;;;;;;;3.19;100.00;101419.47;5128065;27;20536;-69
2024/02/15 08:57:05;;;;;;;26.20;16.48;;;;;;;3.26;100.00;101421.44;5111949;28;20039;-69
2024/02/15 08:59:30;;;;;;;26.85;15.95;;;;;;;3.28;100.00;101424.81;5114842;28;20375;-69
2024/02/15 09:01:56;;;;;;;27.05;16.23;;;;;;;3.27;100.00;101409.81;5111296;28;20036;-69
2024/02/15 09:04:26;;;;;;;23.30;15.45;;;;;;;3.30;100.00;101422.00;5110887;28;20401;-69
2024/02/15 09:06:52;;;;;;;24.45;15.23;;;;;;;3.33;100.00;101419.06;5110728;28;20035;-69
2024/02/15 09:09:17;;;;;;;25.13;15.70;;;;;;;3.26;100.00;101413.44;5110842;28;20398;-69
2024/02/15 09:11:43;;;;;;;22.95;15.02;;;;;;;3.47;100.00;101431.13;5112071;28;20432;-69
2024/02/15 09:14:11;;;;;;;22.67;14.52;;;;;;;3.44;100.00;101431.41;5110837;28;20027;-69
2024/02/15 09:16:37;;;;;;;21.92;13.77;;;;;;;3.44;100.00;101426.91;5111462;28;20027;-71
2024/02/15 09:19:02;;;;;;;21.48;14.50;;;;;;;3.52;100.00;101419.09;5128469;27;20497;-69
2024/02/15 09:21:29;;;;;;;20.45;13.02;;;;;;;3.57;100.00;101418.69;5112636;28;20106;-69
2024/02/15 09:23:55;;;;;;;20.92;14.07;;;;;;;3.51;100.00;101414.78;5110772;28;20498;-69
2024/02/15 09:26:20;;;;;;;23.17;14.10;;;;;;;3.55;100.00;101431.31;5112306;28;20450;-69
2024/02/15 09:28:46;;;;;;;20.25;13.80;;;;;;;3.59;100.00;101426.53;5112468;28;20032;-69
2024/02/15 09:31:14;;;;;;;21.27;14.10;;;;;;;3.53;100.00;101410.13;5127663;27;20023;-68
2024/02/15 09:33:40;;;;;;;20.00;14.05;;;;;;;3.76;100.00;101441.81;5110364;28;20079;-68
2024/02/15 09:36:07;;;;;;;21.33;14.70;;;;;;;3.71;100.00;101439.59;5109713;28;20020;-71
2024/02/15 09:38:33;;;;;;;19.10;13.05;;;;;;;3.72;100.00;101435.94;5127438;28;20138;-69
2024/02/15 09:41:07;;;;;;;19.20;13.98;;;;;;;3.75;100.00;101440.97;5110751;28;20031;-69
2024/02/15 09:43:34;;;;;;;21.70;13.20;;;;;;;3.70;100.00;101453.00;5127322;28;20036;-69
2024/02/15 09:46:04;;;;;;;18.95;12.80;;;;;;;3.66;100.00;101454.28;5111496;28;20506;-70
2024/02/15 09:48:30;;;;;;;15.90;11.90;;;;;;;3.65;100.00;101456.09;5127444;28;20106;-69
2024/02/15 09:50:57;;;;;;;18.45;12.27;;;;;;;3.64;100.00;101449.09;5110182;28;20135;-68
2024/02/15 09:53:25;;;;;;;16.88;12.60;;;;;;;3.68;100.00;101445.19;5112102;28;20055;-70
2024/02/15 09:55:54;;;;;;;17.48;11.60;;;;;;;3.69;100.00;101457.50;5113076;28;20382;-69
2024/02/15 09:58:23;;;;;;;16.92;11.98;;;;;;;3.75;100.00;101456.13;5111470;28;20039;-69
2024/02/15 10:00:49;;;;;;;18.25;12.05;;;;;;;3.74;100.00;101444.63;5111867;28;20110;-69
2024/02/15 10:03:19;;;;;;;16.50;12.10;;;;;;;3.74;100.00;101443.75;5111542;28;20098;-69
2024/02/15 10:05:44;;;;;;;15.65;11.75;;;;;;;3.76;100.00;101449.81;5114200;28;20394;-69
2024/02/15 10:08:11;;;;;;;17.33;11.80;;;;;;;3.83;100.00;101450.09;5114277;28;20031;-69
2024/02/15 10:10:36;;;;;;;18.70;12.25;;;;;;;3.93;100.00;101446.44;5114150;28;20028;-69
2024/02/15 10:13:02;;;;;;;16.85;11.50;;;;;;;3.80;100.00;101443.22;5115563;28;20046;-69
2024/02/15 10:15:37;;;;;;;17.85;11.57;;;;;;;3.82;100.00;101435.94;5131454;27;20498;-69
2024/02/15 10:18:05;;;;;;;16.38;10.88;;;;;;;3.77;100.00;101443.50;5115563;28;20132;-69
2024/02/15 10:20:34;;;;;;;14.57;10.80;;;;;;;3.62;100.00;101391.66;5131159;27;20031;-69
2024/02/15 10:22:59;;;;;;;14.63;10.82;;;;;;;3.92;100.00;101427.97;5113715;28;20051;-69
2024/02/15 10:25:29;;;;;;;15.35;10.70;;;;;;;3.91;100.00;101423.63;5114875;28;20059;-70
2024/02/15 10:28:06;;;;;;;13.95;10.65;;;;;;;4.08;100.00;101427.41;5114860;28;20032;-69
2024/02/15 10:30:33;;;;;;;13.85;10.32;;;;;;;3.98;100.00;101420.25;5130577;27;20106;-69
2024/02/15 10:32:59;;;;;;;16.60;11.85;;;;;;;4.01;100.00;101419.13;5130344;27;20024;-69
2024/02/15 10:35:25;;;;;;;14.27;10.35;;;;;;;4.08;100.00;101422.91;5114308;28;20026;-69
2024/02/15 10:37:51;;;;;;;13.82;10.45;;;;;;;4.07;100.00;101401.72;5113064;28;20151;-69
2024/02/15 10:40:20;;;;;;;13.45;10.25;;;;;;;4.24;100.00;101409.84;5130302;27;20023;-69
2024/02/15 10:42:51;;;;;;;14.40;10.50;;;;;;;4.35;100.00;101402.66;5096322;28;20076;-69
2024/02/15 10:45:17;;;;;;;13.68;9.57;;;;;;;4.31;100.00;101403.94;5113105;28;20419;-70
2024/02/15 10:47:47;;;;;;;12.88;10.20;;;;;;;4.29;100.00;101393.41;5114381;28;20093;-69
2024/02/15 10:50:14;;;;;;;13.27;10.10;;;;;;;4.31;100.00;101391.47;5096737;28;20477;-68
2024/02/15 10:52:48;;;;;;;14.32;9.90;;;;;;;4.43;100.00;101389.44;5113613;28;20040;-68
2024/02/15 10:55:32;;;;;;;11.88;9.00;;;;;;;4.51;100.00;101378.94;5113361;28;20039;-68
2024/02/15 10:58:04;;;;;;;12.15;9.38;;;;;;;4.31;100.00;101348.00;5114364;28;20076;-69
2024/02/15 11:00:32;;;;;;;11.30;8.95;;;;;;;4.50;100.00;101358.56;5113485;28;20036;-68
2024/02/15 11:03:04;;;;;;;12.80;9.77;;;;;;;4.56;100.00;101350.00;5114130;28;20062;-68
2024/02/15 11:05:34;;;;;;;11.73;9.10;;;;;;;4.68;100.00;101353.31;5114101;28;20036;-68
2024/02/15 11:08:04;;;;;;;10.65;8.68;;;;;;;4.87;100.00;101363.91;5112665;28;20024;-70
2024/02/15 11:10:30;;;;;;;10.02;8.10;;;;;;;4.86;100.00;101356.03;5108091;28;20031;-71
2024/02/15 11:12:58;;;;;;;9.52;7.53;;;;;;;4.89;100.00;101369.91;5112765;28;20027;-69
2024/02/15 11:15:36;;;;;;;10.02;7.75;;;;;;;5.07;100.00;101367.31;5113141;28;20039;-69
2024/02/15 11:18:05;;;;;;;10.73;6.97;;;;;;;5.07;100.00;101369.97;5112627;28;20117;-69
2024/02/15 11:20:35;;;;;;;8.65;6.93;;;;;;;5.15;100.00;101364.72;5113084;28;20027;-69
2024/02/15 11:23:03;;;;;;;9.27;7.30;;;;;;;5.10;100.00;101364.34;5113740;28;20055;-69